Terminal Aerodrome Forecast
Issued by NWS

Home | Current Version | Previous Version | Text Only | Print | Product List | Glossary On
Versions: 1 2 3 4 5 6 7 8 9 10 11 12
000
FTUS43 KLSX 171700
TAFCPS
TAF
KCPS 171720Z 1718/1818 24008KT P6SM BKN250
     FM172300 27005KT P6SM SCT050 BKN120
     FM180400 35004KT P6SM BKN050
     FM181000 01004KT P6SM SCT050=

USA.gov is the U.S. government's official web portal to all federal, state and local government web resources and services.